ADDS METAR Data INFO
IDs: Format: Raw Decoded Include TAF

Data at: 0215 UTC 14 Dec 2017

KJXN 140156Z 01006KT 1 1/4SM -SN BR SCT017 BKN025 OVC031 M06/M08 A2937 RMK AO2 SLP961 P0001 T10561078
KJXN 140110Z 04007KT 1SM -SN BR SCT013 OVC028 M06/M08 A2935 RMK AO2 P0000 T10611083
KJXN 140056Z 06007KT 3/4SM +SN VV012 M06/M08 A2934 RMK AO2 SLP949 P0001 T10611083
KJXN 140034Z 06007KT 3/4SM +SN VV014 M06/M08 A2934 RMK AO2 P0001 T10611083
KJXN 140004Z 08010KT 1SM +SN VV018 M06/M08 A2934 RMK AO2 P0000 T10611083
KJXN 132356Z 09010KT 3/4SM +SN VV016 M06/M08 A2934 RMK AO2 SLP951 P0003 60008 T10611083 11061 21072 58014
KJXN 132345Z 09010KT 1/2SM +SN VV011 M06/M08 A2934 RMK AO2 P0003 T10611083
KJXN 132320Z 08011KT 1/2SM +SN VV009 M06/M08 A2935 RMK AO2 P0002 T10611083
KJXN 132256Z 09011KT 1/2SM +SN VV010 M06/M08 A2936 RMK AO2 SLP957 P0004 T10611083
KJXN 132248Z 09011KT 1/2SM SN FZFG VV010 M06/M08 A2936 RMK AO2 P0004 T10611083
KJXN 132236Z 09009KT 1/2SM SN FZFG VV009 M06/M08 A2937 RMK AO2 P0004 T10611083
KJXN 132213Z 10009KT 1/2SM SN FZFG VV011 M06/M08 A2937 RMK AO2 P0001 T10611083
KJXN 132205Z AUTO 09008KT 1/4SM +SN VV013 M06/M09 A2938 RMK AO2 P0001 T10611089
KJXN 132156Z AUTO 09010KT 1/4SM +SN VV015 M06/M09 A2938 RMK AO2 SLP964 P0001 T10611089
KJXN 132106Z AUTO 10007KT 3/4SM -SN OVC028 M06/M09 A2938 RMK AO2 P0000 T10611094
KJXN 132056Z AUTO 11009KT 1 1/2SM -SN BKN036 OVC043 M06/M10 A2938 RMK AO2 SNE11B47 SLP965 P0000 60000 T10611100 56046
KJXN 132006Z 13011KT 3SM -SN SCT028 OVC039 M06/M10 A2940 RMK AO2 P0000 T10611100
KJXN 131956Z 12013G21KT 1SM -SN BKN030 OVC040 M07/M10 A2940 RMK AO2 SNB37 SLP970 P0000 T10671100
KJXN 131942Z 11010G18KT 1 3/4SM -SN BKN033 OVC044 M06/M10 A2941 RMK AO2 SNB37 P0000 T10611100
KJXN 131856Z 12009KT 7SM FEW015 OVC035 M07/M11 A2948 RMK AO2 SNE22 SLP997 P0000 T10671106
KJXN 131817Z 11009G18KT 3SM -SN OVC034 M07/M11 A2949 RMK AO2 PRESFR P0000 T10671106
KJXN 131803Z 11013KT 1SM -SN FEW028 BKN034 OVC044 M07/M11 A2951 RMK AO2 PRESFR P0000 T10721106
KJXN 131756Z 13010KT 2SM -SN FEW028 BKN036 OVC065 M07/M11 A2952 RMK AO2 SNB19 SLP013 P0000 60003 T10721111 11072 21083 58046
KJXN 131656Z 12011KT 7SM FEW027 OVC036 M08/M11 A2960 RMK AO2 SNE52 PRESFR SLP040 P0001 T10781111
KJXN 131653Z 13010KT 5SM HZ FEW025 OVC034 M08/M11 A2961 RMK AO2 SNE52 P0001
KJXN 131643Z 13009KT 2SM -SN SCT018 OVC034 M08/M11 A2963 RMK AO2 P0001 T10781106
KJXN 131639Z 13007KT 1 1/4SM -SN BKN016 OVC036 M08/M11 A2963 RMK AO2 P0001 T10781106
KJXN 131625Z 14009KT 1/2SM SN VV015 M08/M11 A2965 RMK AO2 P0001 T10831111
KJXN 131615Z 13008KT 1/4SM +SN VV012 M08/M11 A2965 RMK AO2 P0001 T10831111
KJXN 131606Z 14008KT 1/2SM SN VV012 M08/M11 A2966 RMK AO2 P0001 T10831111
KJXN 131556Z 13008KT 1/4SM +SN VV011 M08/M11 A2966 RMK AO2 SLP060 P0002 T10831111
KJXN 131543Z 13010KT 1/4SM +SN VV008 M08/M11 A2967 RMK AO2 PRESFR P0002 T10831111
KJXN 131521Z 14007KT 1/4SM +SN VV012 M08/M12 A2970 RMK AO2 P0001 T10831117
KJXN 131513Z 13007KT 1/2SM SN VV013 M08/M12 A2971 RMK AO2 P0001 T10831117
KJXN 131456Z 17013KT 1/2SM SN VV016 M08/M12 A2972 RMK AO2 SLP082 P0000 60000 T10831117 56018
KJXN 131408Z 15006KT 3/4SM -SN OVC028 M08/M12 A2972 RMK AO2 P0000 T10781117
KJXN 131401Z 14006KT 1 3/4SM -SN BKN035 OVC050 M08/M12 A2972 RMK AO2 P0000 T10781117
KJXN 131356Z 13007KT 4SM -SN BKN044 OVC055 M08/M12 A2972 RMK AO2 SNB1258E34B56 SLP081 P0000 T10781122
KJXN 131333Z 14008KT 5SM -SN OVC047 M08/M12 A2973 RMK AO2 SNB1258 P0000 T10781117
KJXN 131319Z 16007KT 2SM -SN OVC043 M08/M12 A2974 RMK AO2 SNB1258 P0000 T10831117
KJXN 131256Z 16009KT 9SM OVC048 M08/M12 A2976 RMK AO2 SLP095 T10831117
KJXN 131156Z 15006KT 10SM OVC060 M08/M12 A2978 RMK AO2 SNB09E27 SLP101 P0000 60000 T10831117 11083 21089 58017
KJXN 131105Z AUTO 16006KT 8SM SCT015 BKN034 OVC070 M08/M12 A2979 RMK AO2 T10831122
KJXN 131056Z AUTO 16007KT 10SM BKN016 OVC036 M08/M12 A2980 RMK AO2 SLP107 T10831122
KJXN 130956Z AUTO 19006KT 10SM OVC021 M08/M12 A2982 RMK AO2 SLP114 T10831122
KJXN 130856Z AUTO 21007KT 10SM BKN027 OVC037 M09/M12 A2983 RMK AO2 SLP117 T10891122 56010
KJXN 130756Z AUTO 22007KT 10SM OVC040 M09/M13 A2984 RMK AO2 SLP120 T10891128
KJXN 130656Z AUTO 23006KT 10SM OVC040 M09/M13 A2984 RMK AO2 SLP123 T10891133
KJXN 130556Z AUTO 23006KT 10SM OVC046 M09/M14 A2986 RMK AO2 SLP129 T10891139 11078 21100 56011
KJXN 130456Z AUTO 26003KT 10SM OVC042 M08/M15 A2987 RMK AO2 SLP132 T10831150 410061100
KJXN 130356Z AUTO 31006KT 10SM OVC043 M08/M16 A2988 RMK AO2 SLP135 T10781156
KJXN 130256Z AUTO 28010KT 10SM OVC047 M08/M16 A2989 RMK AO2 SLP140 T10831161 58001
KJXN 130156Z 28008KT 10SM OVC046 M08/M16 A2990 RMK AO2 SLP141 T10831161
KJXN 130056Z 28007KT 10SM FEW055 M09/M17 A2990 RMK AO2 SLP144 T10941167
KJXN 122356Z 28008KT 10SM SCT055 M09/M17 A2990 RMK AO2 SLP141 60000 T10891167 11067 21094 51013
KJXN 122256Z 28008KT 10SM FEW039 SCT050 M08/M17 A2989 RMK AO2 SLP137 T10831167
KJXN 122156Z 28010KT 10SM OVC050 M07/M17 A2987 RMK AO2 SLP130 T10721167
KJXN 122056Z 30009G18KT 10SM FEW043 BKN055 M07/M17 A2986 RMK AO2 SNB1959E11 SLP125 P0000 60000 T10721167 55004
KJXN 121956Z 30011G18KT 9SM BKN042 OVC055 M07/M15 A2986 RMK AO2 SLP124 T10721150
KJXN 121856Z 30008G18KT 9SM FEW032 BKN046 M08/M13 A2986 RMK AO2 SNE08B29E44 SLP126 P0000 T10781133
KJXN 121842Z 30008KT 3SM -SN FEW033 SCT039 BKN050 M08/M13 A2986 RMK AO2 SNE08B29 P0000 T10781133
KJXN 121830Z 29011G18KT 1 1/2SM -SN FEW020 BKN041 OVC055 M08/M12 A2987 RMK AO2 SNE08B29 P0000 T10781122
KJXN 121811Z 31010KT 9SM FEW021 SCT034 OVC055 M08/M12 A2987 RMK AO2 SNE08 P0000 T10781122
KJXN 121804Z 30006KT 2 1/2SM -SN SCT026 BKN036 BKN055 M08/M12 A2987 RMK AO2 P0000 T10831122
KJXN 121756Z 29011G17KT 1/2SM SN SCT023 BKN034 OVC050 M08/M12 A2987 RMK AO2 SNB44 SLP129 P0000 60000 T10831122 11067 21083 58001
KJXN 121747Z 29013G17KT 1 3/4SM -SN BKN034 OVC050 M08/M14 A2987 RMK AO2 SNB44 P0000 T10781139
KJXN 121656Z 30009G23KT 10SM SCT032 SCT055 M07/M15 A2987 RMK AO2 SNE1559 SLP129 P0000 T10671150
KJXN 121626Z 29011G23KT 10SM FEW020 SCT034 BKN055 M08/M14 A2988 RMK AO2 SNE1559 P0000 T10781144
KJXN 121556Z 29012G18KT 3SM -SN BKN019 BKN028 OVC040 M08/M12 A2989 RMK AO2 SNB23 SLP135 P0000 T10781122
KJXN 121539Z 30012G18KT 1 1/2SM -SN BKN026 OVC037 M08/M12 A2989 RMK AO2 SNB23 P0000 T10781122
KJXN 121531Z 31011G22KT 2SM -SN FEW027 BKN035 OVC055 M08/M13 A2988 RMK AO2 SNB23 P0000 T10781128 $
KJXN 121456Z 29010G19KT 9SM SCT025 M08/M13 A2987 RMK AO2 SNE00 SLP130 P0000 60000 T10781133 51008 $